sensor_id;sensor_type;location;lat;lon;timestamp;temperature;humidity
34726;DHT22;20951;50.818;4.344;2023-06-14T00:00:59;24.00;68.90
34726;DHT22;20951;50.818;4.344;2023-06-14T00:03:25;24.00;69.10
34726;DHT22;20951;50.818;4.344;2023-06-14T00:05:51;23.90;69.20
34726;DHT22;20951;50.818;4.344;2023-06-14T00:08:18;23.80;69.60
34726;DHT22;20951;50.818;4.344;2023-06-14T00:10:45;23.70;69.50
34726;DHT22;20951;50.818;4.344;2023-06-14T00:13:11;23.70;69.50
34726;DHT22;20951;50.818;4.344;2023-06-14T00:15:38;23.80;69.70
34726;DHT22;20951;50.818;4.344;2023-06-14T00:18:04;23.70;69.50
34726;DHT22;20951;50.818;4.344;2023-06-14T00:20:32;23.70;69.50
34726;DHT22;20951;50.818;4.344;2023-06-14T00:23:02;23.70;69.80
34726;DHT22;20951;50.818;4.344;2023-06-14T00:25:28;23.70;69.90
34726;DHT22;20951;50.818;4.344;2023-06-14T00:27:55;23.60;70.10
34726;DHT22;20951;50.818;4.344;2023-06-14T00:30:21;23.60;70.30
34726;DHT22;20951;50.818;4.344;2023-06-14T00:32:48;23.60;70.40
34726;DHT22;20951;50.818;4.344;2023-06-14T00:35:14;23.50;70.40
34726;DHT22;20951;50.818;4.344;2023-06-14T00:37:41;23.50;70.60
34726;DHT22;20951;50.818;4.344;2023-06-14T01:00:54;22.90;72.40
34726;DHT22;20951;50.818;4.344;2023-06-14T01:03:23;23.00;72.70
34726;DHT22;20951;50.818;4.344;2023-06-14T01:06:05;23.00;72.60
34726;DHT22;20951;50.818;4.344;2023-06-14T01:08:50;22.90;72.70
34726;DHT22;20951;50.818;4.344;2023-06-14T01:11:26;22.90;72.50
34726;DHT22;20951;50.818;4.344;2023-06-14T01:13:55;22.90;72.70
34726;DHT22;20951;50.818;4.344;2023-06-14T01:16:21;22.90;72.90
34726;DHT22;20951;50.818;4.344;2023-06-14T01:18:48;22.90;73.00
34726;DHT22;20951;50.818;4.344;2023-06-14T01:21:26;22.80;73.00
34726;DHT22;20951;50.818;4.344;2023-06-14T01:23:53;22.80;73.20
34726;DHT22;20951;50.818;4.344;2023-06-14T01:26:22;22.70;73.30
34726;DHT22;20951;50.818;4.344;2023-06-14T01:28:49;22.80;73.50
34726;DHT22;20951;50.818;4.344;2023-06-14T01:31:20;22.70;73.60
34726;DHT22;20951;50.818;4.344;2023-06-14T01:33:48;22.70;73.80
34726;DHT22;20951;50.818;4.344;2023-06-14T01:36:18;22.70;73.70
34726;DHT22;20951;50.818;4.344;2023-06-14T01:38:46;22.70;73.70
34726;DHT22;20951;50.818;4.344;2023-06-14T01:41:18;22.60;74.00
34726;DHT22;20951;50.818;4.344;2023-06-14T01:43:46;22.60;74.30
34726;DHT22;20951;50.818;4.344;2023-06-14T01:46:14;22.50;74.20
34726;DHT22;20951;50.818;4.344;2023-06-14T01:48:41;22.50;74.30
34726;DHT22;20951;50.818;4.344;2023-06-14T01:51:07;22.50;74.50
34726;DHT22;20951;50.818;4.344;2023-06-14T01:53:33;22.50;74.50
34726;DHT22;20951;50.818;4.344;2023-06-14T01:56:00;22.40;74.70
34726;DHT22;20951;50.818;4.344;2023-06-14T01:58:29;22.40;75.10
34726;DHT22;20951;50.818;4.344;2023-06-14T02:00:56;22.30;75.20
34726;DHT22;20951;50.818;4.344;2023-06-14T02:03:23;22.30;75.10
34726;DHT22;20951;50.818;4.344;2023-06-14T02:05:49;22.30;75.20
34726;DHT22;20951;50.818;4.344;2023-06-14T02:08:18;22.20;75.60
34726;DHT22;20951;50.818;4.344;2023-06-14T02:10:44;22.20;75.80
34726;DHT22;20951;50.818;4.344;2023-06-14T02:13:11;22.20;76.10
34726;DHT22;20951;50.818;4.344;2023-06-14T02:15:37;22.10;76.00
34726;DHT22;20951;50.818;4.344;2023-06-14T02:18:04;22.10;76.30
34726;DHT22;20951;50.818;4.344;2023-06-14T02:20:34;22.10;76.40
34726;DHT22;20951;50.818;4.344;2023-06-14T02:23:00;21.90;76.30
34726;DHT22;20951;50.818;4.344;2023-06-14T02:25:26;21.90;76.60
34726;DHT22;20951;50.818;4.344;2023-06-14T02:27:55;21.80;76.80
34726;DHT22;20951;50.818;4.344;2023-06-14T02:30:25;21.90;77.00
34726;DHT22;20951;50.818;4.344;2023-06-14T02:32:52;21.80;77.40
34726;DHT22;20951;50.818;4.344;2023-06-14T02:35:19;21.80;77.50
34726;DHT22;20951;50.818;4.344;2023-06-14T02:37:46;21.70;77.80
34726;DHT22;20951;50.818;4.344;2023-06-14T02:40:12;21.60;78.00
34726;DHT22;20951;50.818;4.344;2023-06-14T02:42:39;21.60;78.10
34726;DHT22;20951;50.818;4.344;2023-06-14T02:45:05;21.60;78.40
34726;DHT22;20951;50.818;4.344;2023-06-14T02:47:32;21.50;78.70
34726;DHT22;20951;50.818;4.344;2023-06-14T02:49:58;21.40;78.80
34726;DHT22;20951;50.818;4.344;2023-06-14T02:52:24;21.50;79.00
34726;DHT22;20951;50.818;4.344;2023-06-14T02:54:51;21.40;79.20
34726;DHT22;20951;50.818;4.344;2023-06-14T02:57:17;21.30;79.60
34726;DHT22;20951;50.818;4.344;2023-06-14T02:59:43;21.40;79.80
34726;DHT22;20951;50.818;4.344;2023-06-14T03:02:10;21.30;79.80
34726;DHT22;20951;50.818;4.344;2023-06-14T03:04:36;21.30;79.80
34726;DHT22;20951;50.818;4.344;2023-06-14T03:07:06;21.20;80.00
34726;DHT22;20951;50.818;4.344;2023-06-14T03:09:36;21.10;80.50
34726;DHT22;20951;50.818;4.344;2023-06-14T03:12:03;21.00;81.20
34726;DHT22;20951;50.818;4.344;2023-06-14T03:14:30;21.00;82.20
34726;DHT22;20951;50.818;4.344;2023-06-14T03:16:57;21.00;81.70
34726;DHT22;20951;50.818;4.344;2023-06-14T03:19:23;21.00;81.80
34726;DHT22;20951;50.818;4.344;2023-06-14T03:21:50;20.90;82.10
34726;DHT22;20951;50.818;4.344;2023-06-14T03:24:16;20.80;82.60
34726;DHT22;20951;50.818;4.344;2023-06-14T03:26:43;20.70;83.20
34726;DHT22;20951;50.818;4.344;2023-06-14T03:29:09;20.70;83.60
34726;DHT22;20951;50.818;4.344;2023-06-14T03:31:36;20.70;83.70
34726;DHT22;20951;50.818;4.344;2023-06-14T03:34:02;20.70;84.20
34726;DHT22;20951;50.818;4.344;2023-06-14T03:36:28;20.70;84.10
34726;DHT22;20951;50.818;4.344;2023-06-14T03:38:55;20.70;84.20
34726;DHT22;20951;50.818;4.344;2023-06-14T03:41:21;20.70;84.40
34726;DHT22;20951;50.818;4.344;2023-06-14T03:43:48;20.70;84.60
34726;DHT22;20951;50.818;4.344;2023-06-14T03:46:14;20.70;84.50
34726;DHT22;20951;50.818;4.344;2023-06-14T03:48:41;20.60;85.00
34726;DHT22;20951;50.818;4.344;2023-06-14T03:51:07;20.60;85.40
34726;DHT22;20951;50.818;4.344;2023-06-14T03:53:34;20.50;85.40
34726;DHT22;20951;50.818;4.344;2023-06-14T03:56:01;20.50;85.70
34726;DHT22;20951;50.818;4.344;2023-06-14T03:58:30;20.50;86.10
34726;DHT22;20951;50.818;4.344;2023-06-14T04:00:57;20.50;86.40
34726;DHT22;20951;50.818;4.344;2023-06-14T04:03:27;20.50;86.50
34726;DHT22;20951;50.818;4.344;2023-06-14T04:05:55;20.50;86.60
34726;DHT22;20951;50.818;4.344;2023-06-14T04:08:22;20.40;86.60
34726;DHT22;20951;50.818;4.344;2023-06-14T04:10:50;20.30;87.60
34726;DHT22;20951;50.818;4.344;2023-06-14T04:13:16;20.30;88.20
34726;DHT22;20951;50.818;4.344;2023-06-14T04:15:43;20.30;88.40
34726;DHT22;20951;50.818;4.344;2023-06-14T04:18:12;20.30;88.50
34726;DHT22;20951;50.818;4.344;2023-06-14T04:20:39;20.40;88.60
34726;DHT22;20951;50.818;4.344;2023-06-14T04:23:13;20.40;88.30
34726;DHT22;20951;50.818;4.344;2023-06-14T04:25:40;20.50;88.20
34726;DHT22;20951;50.818;4.344;2023-06-14T04:28:11;20.50;88.20
34726;DHT22;20951;50.818;4.344;2023-06-14T04:30:37;20.50;87.90
34726;DHT22;20951;50.818;4.344;2023-06-14T04:33:05;20.60;87.80
34726;DHT22;20951;50.818;4.344;2023-06-14T04:35:31;20.70;87.90
34726;DHT22;20951;50.818;4.344;2023-06-14T04:38:02;20.60;88.20
34726;DHT22;20951;50.818;4.344;2023-06-14T04:40:31;20.50;88.00
34726;DHT22;20951;50.818;4.344;2023-06-14T04:42:57;20.50;88.20
34726;DHT22;20951;50.818;4.344;2023-06-14T04:45:23;20.60;88.40
34726;DHT22;20951;50.818;4.344;2023-06-14T04:47:50;20.70;87.60
34726;DHT22;20951;50.818;4.344;2023-06-14T04:50:26;20.70;87.50
34726;DHT22;20951;50.818;4.344;2023-06-14T04:52:53;20.80;87.50
34726;DHT22;20951;50.818;4.344;2023-06-14T04:55:19;20.70;87.40
34726;DHT22;20951;50.818;4.344;2023-06-14T04:57:46;20.70;87.70
34726;DHT22;20951;50.818;4.344;2023-06-14T05:00:15;20.80;87.60
34726;DHT22;20951;50.818;4.344;2023-06-14T05:02:42;20.70;87.60
34726;DHT22;20951;50.818;4.344;2023-06-14T05:05:09;20.90;87.50
34726;DHT22;20951;50.818;4.344;2023-06-14T05:07:35;20.90;87.10
34726;DHT22;20951;50.818;4.344;2023-06-14T05:10:01;21.00;87.00
34726;DHT22;20951;50.818;4.344;2023-06-14T05:12:28;21.00;87.10
34726;DHT22;20951;50.818;4.344;2023-06-14T05:14:54;21.00;87.00
34726;DHT22;20951;50.818;4.344;2023-06-14T05:17:23;20.90;87.30
34726;DHT22;20951;50.818;4.344;2023-06-14T05:19:50;21.00;87.00
34726;DHT22;20951;50.818;4.344;2023-06-14T05:22:16;21.00;87.00
34726;DHT22;20951;50.818;4.344;2023-06-14T05:24:42;21.00;87.30
34726;DHT22;20951;50.818;4.344;2023-06-14T05:27:09;20.90;87.30
34726;DHT22;20951;50.818;4.344;2023-06-14T05:29:38;20.80;88.00
34726;DHT22;20951;50.818;4.344;2023-06-14T05:32:04;20.80;88.20
34726;DHT22;20951;50.818;4.344;2023-06-14T05:34:30;20.90;87.90
34726;DHT22;20951;50.818;4.344;2023-06-14T05:37:01;20.80;88.60
34726;DHT22;20951;50.818;4.344;2023-06-14T05:39:33;20.80;88.80
34726;DHT22;20951;50.818;4.344;2023-06-14T05:42:08;21.00;88.40
34726;DHT22;20951;50.818;4.344;2023-06-14T05:44:39;21.10;87.90
34726;DHT22;20951;50.818;4.344;2023-06-14T05:47:11;21.30;87.10
34726;DHT22;20951;50.818;4.344;2023-06-14T05:49:42;21.30;87.30
34726;DHT22;20951;50.818;4.344;2023-06-14T05:52:14;21.40;86.80
34726;DHT22;20951;50.818;4.344;2023-06-14T05:54:46;21.40;86.50
34726;DHT22;20951;50.818;4.344;2023-06-14T05:57:17;21.50;86.20
34726;DHT22;20951;50.818;4.344;2023-06-14T05:59:50;21.50;86.50
34726;DHT22;20951;50.818;4.344;2023-06-14T06:02:22;21.50;86.60
34726;DHT22;20951;50.818;4.344;2023-06-14T06:04:54;21.60;85.80
34726;DHT22;20951;50.818;4.344;2023-06-14T06:07:26;21.80;85.90
34726;DHT22;20951;50.818;4.344;2023-06-14T06:09:58;21.90;84.60
34726;DHT22;20951;50.818;4.344;2023-06-14T06:12:29;22.00;84.00
34726;DHT22;20951;50.818;4.344;2023-06-14T06:15:02;22.10;83.90
34726;DHT22;20951;50.818;4.344;2023-06-14T06:17:34;22.10;83.50
34726;DHT22;20951;50.818;4.344;2023-06-14T06:20:03;22.30;82.90
34726;DHT22;20951;50.818;4.344;2023-06-14T06:22:31;22.50;82.40
34726;DHT22;20951;50.818;4.344;2023-06-14T06:24:59;23.30;80.40
34726;DHT22;20951;50.818;4.344;2023-06-14T06:27:31;25.10;75.80
34726;DHT22;20951;50.818;4.344;2023-06-14T06:30:02;26.90;70.60
34726;DHT22;20951;50.818;4.344;2023-06-14T06:32:32;28.50;66.60
34726;DHT22;20951;50.818;4.344;2023-06-14T06:35:07;29.50;64.40
34726;DHT22;20951;50.818;4.344;2023-06-14T06:37:39;30.00;62.60
34726;DHT22;20951;50.818;4.344;2023-06-14T06:40:10;30.90;61.50
34726;DHT22;20951;50.818;4.344;2023-06-14T06:42:41;30.90;60.40
34726;DHT22;20951;50.818;4.344;2023-06-14T06:45:13;31.60;59.80
34726;DHT22;20951;50.818;4.344;2023-06-14T06:47:44;32.30;59.00
34726;DHT22;20951;50.818;4.344;2023-06-14T06:50:16;33.30;58.00
34726;DHT22;20951;50.818;4.344;2023-06-14T06:52:47;33.60;56.90
34726;DHT22;20951;50.818;4.344;2023-06-14T06:55:18;33.90;56.70
34726;DHT22;20951;50.818;4.344;2023-06-14T06:57:50;34.10;56.20
34726;DHT22;20951;50.818;4.344;2023-06-14T07:00:22;34.30;55.80
34726;DHT22;20951;50.818;4.344;2023-06-14T07:02:53;34.30;54.90
34726;DHT22;20951;50.818;4.344;2023-06-14T07:05:25;34.20;54.70
34726;DHT22;20951;50.818;4.344;2023-06-14T07:07:57;35.30;54.40
34726;DHT22;20951;50.818;4.344;2023-06-14T07:10:28;35.10;53.60
34726;DHT22;20951;50.818;4.344;2023-06-14T07:13:00;35.40;53.30
34726;DHT22;20951;50.818;4.344;2023-06-14T07:15:32;36.60;53.00
34726;DHT22;20951;50.818;4.344;2023-06-14T07:18:03;36.20;52.50
34726;DHT22;20951;50.818;4.344;2023-06-14T07:20:39;35.80;52.70
34726;DHT22;20951;50.818;4.344;2023-06-14T07:23:15;35.80;52.90
34726;DHT22;20951;50.818;4.344;2023-06-14T07:25:46;35.90;52.50
34726;DHT22;20951;50.818;4.344;2023-06-14T07:28:17;36.80;52.10
34726;DHT22;20951;50.818;4.344;2023-06-14T07:30:53;37.30;52.00
34726;DHT22;20951;50.818;4.344;2023-06-14T07:33:25;37.40;51.30
34726;DHT22;20951;50.818;4.344;2023-06-14T07:35:56;38.20;50.90
34726;DHT22;20951;50.818;4.344;2023-06-14T07:38:27;38.80;50.50
34726;DHT22;20951;50.818;4.344;2023-06-14T07:40:59;37.80;50.80
34726;DHT22;20951;50.818;4.344;2023-06-14T07:43:31;38.50;50.10
34726;DHT22;20951;50.818;4.344;2023-06-14T07:46:04;38.80;49.90
34726;DHT22;20951;50.818;4.344;2023-06-14T07:48:36;39.60;50.00
34726;DHT22;20951;50.818;4.344;2023-06-14T07:51:08;40.60;49.30
34726;DHT22;20951;50.818;4.344;2023-06-14T07:53:40;41.10;48.30
34726;DHT22;20951;50.818;4.344;2023-06-14T07:56:12;40.30;47.90
34726;DHT22;20951;50.818;4.344;2023-06-14T07:58:44;40.00;48.30
34726;DHT22;20951;50.818;4.344;2023-06-14T08:01:16;39.70;48.20
34726;DHT22;20951;50.818;4.344;2023-06-14T08:03:48;39.60;48.50
34726;DHT22;20951;50.818;4.344;2023-06-14T08:06:20;39.60;48.00
34726;DHT22;20951;50.818;4.344;2023-06-14T08:08:52;39.80;48.00
34726;DHT22;20951;50.818;4.344;2023-06-14T08:11:25;39.90;47.80
34726;DHT22;20951;50.818;4.344;2023-06-14T08:13:57;40.30;48.20
34726;DHT22;20951;50.818;4.344;2023-06-14T08:16:29;40.50;47.10
34726;DHT22;20951;50.818;4.344;2023-06-14T08:19:00;40.20;46.70
34726;DHT22;20951;50.818;4.344;2023-06-14T08:21:31;39.70;47.30
34726;DHT22;20951;50.818;4.344;2023-06-14T08:24:03;39.40;47.20
34726;DHT22;20951;50.818;4.344;2023-06-14T08:26:35;39.90;47.20
34726;DHT22;20951;50.818;4.344;2023-06-14T08:29:06;40.40;47.60
34726;DHT22;20951;50.818;4.344;2023-06-14T08:31:39;40.60;47.40
34726;DHT22;20951;50.818;4.344;2023-06-14T08:34:10;40.90;47.30
34726;DHT22;20951;50.818;4.344;2023-06-14T08:36:41;40.90;46.50
34726;DHT22;20951;50.818;4.344;2023-06-14T08:39:12;40.60;47.90
34726;DHT22;20951;50.818;4.344;2023-06-14T08:41:48;41.00;45.90
34726;DHT22;20951;50.818;4.344;2023-06-14T08:44:19;40.80;46.50
34726;DHT22;20951;50.818;4.344;2023-06-14T08:46:50;40.00;47.50
34726;DHT22;20951;50.818;4.344;2023-06-14T08:49:20;39.80;48.20
34726;DHT22;20951;50.818;4.344;2023-06-14T08:51:58;40.60;48.30
34726;DHT22;20951;50.818;4.344;2023-06-14T08:54:31;40.20;47.40
34726;DHT22;20951;50.818;4.344;2023-06-14T08:57:04;40.00;48.60
34726;DHT22;20951;50.818;4.344;2023-06-14T08:59:35;39.40;48.70
34726;DHT22;20951;50.818;4.344;2023-06-14T09:02:07;39.80;48.40
34726;DHT22;20951;50.818;4.344;2023-06-14T09:04:40;39.00;48.10
34726;DHT22;20951;50.818;4.344;2023-06-14T09:07:12;39.10;48.40
34726;DHT22;20951;50.818;4.344;2023-06-14T09:09:43;39.40;48.90
34726;DHT22;20951;50.818;4.344;2023-06-14T09:12:14;39.30;48.70
34726;DHT22;20951;50.818;4.344;2023-06-14T09:14:45;39.20;49.50
34726;DHT22;20951;50.818;4.344;2023-06-14T09:17:17;39.20;50.20
34726;DHT22;20951;50.818;4.344;2023-06-14T09:19:48;38.60;50.10
34726;DHT22;20951;50.818;4.344;2023-06-14T09:22:19;38.60;49.80
34726;DHT22;20951;50.818;4.344;2023-06-14T09:24:51;38.50;50.10
34726;DHT22;20951;50.818;4.344;2023-06-14T09:27:23;38.50;50.40
34726;DHT22;20951;50.818;4.344;2023-06-14T09:29:56;38.70;50.70
34726;DHT22;20951;50.818;4.344;2023-06-14T09:32:28;39.20;50.00
34726;DHT22;20951;50.818;4.344;2023-06-14T09:35:00;39.30;49.60
34726;DHT22;20951;50.818;4.344;2023-06-14T09:37:32;38.50;50.00
34726;DHT22;20951;50.818;4.344;2023-06-14T09:40:06;38.60;50.00
34726;DHT22;20951;50.818;4.344;2023-06-14T09:42:37;38.60;49.10
34726;DHT22;20951;50.818;4.344;2023-06-14T09:45:09;38.20;49.70
34726;DHT22;20951;50.818;4.344;2023-06-14T09:47:40;38.10;50.10
34726;DHT22;20951;50.818;4.344;2023-06-14T09:50:13;37.60;50.10
34726;DHT22;20951;50.818;4.344;2023-06-14T09:52:44;37.70;50.70
34726;DHT22;20951;50.818;4.344;2023-06-14T09:55:15;38.60;50.00
34726;DHT22;20951;50.818;4.344;2023-06-14T09:57:46;39.10;49.20
34726;DHT22;20951;50.818;4.344;2023-06-14T10:00:19;39.80;48.90
34726;DHT22;20951;50.818;4.344;2023-06-14T10:02:54;39.30;48.60
34726;DHT22;20951;50.818;4.344;2023-06-14T10:05:25;39.40;48.50
34726;DHT22;20951;50.818;4.344;2023-06-14T10:07:59;38.70;48.80
34726;DHT22;20951;50.818;4.344;2023-06-14T10:10:28;38.40;49.60
34726;DHT22;20951;50.818;4.344;2023-06-14T10:12:59;38.00;48.70
34726;DHT22;20951;50.818;4.344;2023-06-14T10:16:15;37.80;49.30
34726;DHT22;20951;50.818;4.344;2023-06-14T10:23:54;39.10;47.60
34726;DHT22;20951;50.818;4.344;2023-06-14T10:26:26;38.50;48.60
34726;DHT22;20951;50.818;4.344;2023-06-14T10:29:07;38.50;48.30
34726;DHT22;20951;50.818;4.344;2023-06-14T10:31:49;38.80;47.90
34726;DHT22;20951;50.818;4.344;2023-06-14T10:34:25;38.60;48.20
34726;DHT22;20951;50.818;4.344;2023-06-14T10:37:13;38.50;47.90
34726;DHT22;20951;50.818;4.344;2023-06-14T10:39:41;38.50;48.70
34726;DHT22;20951;50.818;4.344;2023-06-14T10:42:08;38.30;49.00
34726;DHT22;20951;50.818;4.344;2023-06-14T10:44:38;38.90;48.90
34726;DHT22;20951;50.818;4.344;2023-06-14T10:50:03;39.20;48.50
34726;DHT22;20951;50.818;4.344;2023-06-14T10:52:38;39.00;48.40
34726;DHT22;20951;50.818;4.344;2023-06-14T10:55:10;38.60;48.60
34726;DHT22;20951;50.818;4.344;2023-06-14T10:57:49;36.80;49.20
34726;DHT22;20951;50.818;4.344;2023-06-14T11:00:22;37.10;50.90
34726;DHT22;20951;50.818;4.344;2023-06-14T11:05:56;37.70;49.00
34726;DHT22;20951;50.818;4.344;2023-06-14T11:11:11;39.00;48.00
34726;DHT22;20951;50.818;4.344;2023-06-14T11:13:41;40.00;47.90
34726;DHT22;20951;50.818;4.344;2023-06-14T11:16:12;39.90;46.90
34726;DHT22;20951;50.818;4.344;2023-06-14T11:18:41;40.30;47.20
34726;DHT22;20951;50.818;4.344;2023-06-14T11:21:08;40.40;46.40
34726;DHT22;20951;50.818;4.344;2023-06-14T11:23:36;39.70;46.80
34726;DHT22;20951;50.818;4.344;2023-06-14T11:26:03;39.50;47.40
34726;DHT22;20951;50.818;4.344;2023-06-14T11:28:40;39.10;47.40
34726;DHT22;20951;50.818;4.344;2023-06-14T11:31:07;38.90;46.90
34726;DHT22;20951;50.818;4.344;2023-06-14T11:33:34;39.00;47.40
34726;DHT22;20951;50.818;4.344;2023-06-14T11:36:05;39.30;47.10
34726;DHT22;20951;50.818;4.344;2023-06-14T11:38:37;40.00;47.40
34726;DHT22;20951;50.818;4.344;2023-06-14T11:41:03;40.40;46.50
34726;DHT22;20951;50.818;4.344;2023-06-14T11:43:29;40.50;46.30
34726;DHT22;20951;50.818;4.344;2023-06-14T11:45:57;40.90;46.20
34726;DHT22;20951;50.818;4.344;2023-06-14T11:48:23;40.20;45.50
34726;DHT22;20951;50.818;4.344;2023-06-14T11:51:04;39.90;46.10
34726;DHT22;20951;50.818;4.344;2023-06-14T11:53:38;39.80;46.40
34726;DHT22;20951;50.818;4.344;2023-06-14T11:56:11;39.30;47.30
34726;DHT22;20951;50.818;4.344;2023-06-14T11:58:47;40.00;47.00
34726;DHT22;20951;50.818;4.344;2023-06-14T12:01:18;40.40;46.50
34726;DHT22;20951;50.818;4.344;2023-06-14T12:03:51;39.80;46.00
34726;DHT22;20951;50.818;4.344;2023-06-14T12:06:30;39.60;46.50
34726;DHT22;20951;50.818;4.344;2023-06-14T12:09:06;39.40;46.60
34726;DHT22;20951;50.818;4.344;2023-06-14T12:11:41;39.20;46.50
34726;DHT22;20951;50.818;4.344;2023-06-14T12:14:15;39.10;46.70
34726;DHT22;20951;50.818;4.344;2023-06-14T12:16:47;39.10;47.30
34726;DHT22;20951;50.818;4.344;2023-06-14T12:19:19;39.80;47.20
34726;DHT22;20951;50.818;4.344;2023-06-14T12:21:52;40.40;46.40
34726;DHT22;20951;50.818;4.344;2023-06-14T12:24:30;40.60;45.30
34726;DHT22;20951;50.818;4.344;2023-06-14T12:27:03;41.10;46.20
34726;DHT22;20951;50.818;4.344;2023-06-14T12:29:36;41.70;45.10
34726;DHT22;20951;50.818;4.344;2023-06-14T12:32:06;41.90;44.90
34726;DHT22;20951;50.818;4.344;2023-06-14T12:34:35;42.40;44.10
34726;DHT22;20951;50.818;4.344;2023-06-14T12:37:01;42.40;44.90
34726;DHT22;20951;50.818;4.344;2023-06-14T12:39:29;42.40;44.50
34726;DHT22;20951;50.818;4.344;2023-06-14T12:41:57;42.20;43.80
34726;DHT22;20951;50.818;4.344;2023-06-14T12:44:23;42.30;43.10
34726;DHT22;20951;50.818;4.344;2023-06-14T12:46:49;41.80;43.40
34726;DHT22;20951;50.818;4.344;2023-06-14T12:49:18;40.80;43.70
34726;DHT22;20951;50.818;4.344;2023-06-14T12:51:46;41.10;44.90
34726;DHT22;20951;50.818;4.344;2023-06-14T12:54:12;41.70;44.40
34726;DHT22;20951;50.818;4.344;2023-06-14T12:56:40;42.40;44.10
34726;DHT22;20951;50.818;4.344;2023-06-14T12:59:27;41.80;44.00
34726;DHT22;20951;50.818;4.344;2023-06-14T13:02:41;42.30;43.40
34726;DHT22;20951;50.818;4.344;2023-06-14T13:05:24;41.80;43.60
34726;DHT22;20951;50.818;4.344;2023-06-14T13:07:52;41.10;44.00
34726;DHT22;20951;50.818;4.344;2023-06-14T13:10:19;42.30;44.70
34726;DHT22;20951;50.818;4.344;2023-06-14T13:12:45;42.70;43.10
34726;DHT22;20951;50.818;4.344;2023-06-14T13:15:12;43.20;43.20
34726;DHT22;20951;50.818;4.344;2023-06-14T13:17:38;43.90;43.00
34726;DHT22;20951;50.818;4.344;2023-06-14T13:20:06;43.90;42.70
34726;DHT22;20951;50.818;4.344;2023-06-14T13:22:41;43.00;43.30
34726;DHT22;20951;50.818;4.344;2023-06-14T13:25:09;42.90;43.70
34726;DHT22;20951;50.818;4.344;2023-06-14T13:27:35;43.30;43.40
34726;DHT22;20951;50.818;4.344;2023-06-14T13:30:22;42.70;43.10
34726;DHT22;20951;50.818;4.344;2023-06-14T13:36:36;40.80;45.10
34726;DHT22;20951;50.818;4.344;2023-06-14T13:39:54;40.50;45.00
34726;DHT22;20951;50.818;4.344;2023-06-14T13:47:16;39.90;45.10
34726;DHT22;20951;50.818;4.344;2023-06-14T13:50:23;39.20;45.20
34726;DHT22;20951;50.818;4.344;2023-06-14T14:02:32;38.60;45.70
34726;DHT22;20951;50.818;4.344;2023-06-14T14:09:03;37.70;45.90
34726;DHT22;20951;50.818;4.344;2023-06-14T14:11:35;37.80;45.20
34726;DHT22;20951;50.818;4.344;2023-06-14T14:14:07;37.40;45.90
34726;DHT22;20951;50.818;4.344;2023-06-14T14:16:38;37.30;45.80
34726;DHT22;20951;50.818;4.344;2023-06-14T14:19:12;37.10;45.40
34726;DHT22;20951;50.818;4.344;2023-06-14T14:21:51;36.40;46.30
34726;DHT22;20951;50.818;4.344;2023-06-14T14:24:29;35.50;47.10
34726;DHT22;20951;50.818;4.344;2023-06-14T14:27:01;34.60;48.50
34726;DHT22;20951;50.818;4.344;2023-06-14T14:29:33;34.00;48.60
34726;DHT22;20951;50.818;4.344;2023-06-14T14:32:03;33.50;48.50
34726;DHT22;20951;50.818;4.344;2023-06-14T14:34:46;32.80;49.70
34726;DHT22;20951;50.818;4.344;2023-06-14T14:37:17;32.60;50.00
34726;DHT22;20951;50.818;4.344;2023-06-14T14:39:49;32.60;50.10
34726;DHT22;20951;50.818;4.344;2023-06-14T14:42:20;32.20;49.80
34726;DHT22;20951;50.818;4.344;2023-06-14T14:44:51;32.10;50.20
34726;DHT22;20951;50.818;4.344;2023-06-14T14:47:22;32.00;50.40
34726;DHT22;20951;50.818;4.344;2023-06-14T14:49:53;31.70;50.10
34726;DHT22;20951;50.818;4.344;2023-06-14T14:52:25;31.40;50.90
34726;DHT22;20951;50.818;4.344;2023-06-14T14:54:58;31.20;51.70
34726;DHT22;20951;50.818;4.344;2023-06-14T14:57:29;31.00;51.50
34726;DHT22;20951;50.818;4.344;2023-06-14T15:00:00;31.10;52.30
34726;DHT22;20951;50.818;4.344;2023-06-14T15:02:31;31.20;51.90
34726;DHT22;20951;50.818;4.344;2023-06-14T15:05:28;31.00;51.50
34726;DHT22;20951;50.818;4.344;2023-06-14T15:08:00;30.70;51.50
34726;DHT22;20951;50.818;4.344;2023-06-14T15:10:37;30.40;52.10
34726;DHT22;20951;50.818;4.344;2023-06-14T15:13:09;30.40;51.90
34726;DHT22;20951;50.818;4.344;2023-06-14T15:15:38;30.50;52.00
34726;DHT22;20951;50.818;4.344;2023-06-14T15:18:04;30.60;53.20
34726;DHT22;20951;50.818;4.344;2023-06-14T15:20:33;30.70;52.10
34726;DHT22;20951;50.818;4.344;2023-06-14T15:23:02;30.70;51.60
34726;DHT22;20951;50.818;4.344;2023-06-14T15:25:30;30.60;51.60
34726;DHT22;20951;50.818;4.344;2023-06-14T15:27:59;30.50;52.00
34726;DHT22;20951;50.818;4.344;2023-06-14T15:30:26;30.60;52.10
34726;DHT22;20951;50.818;4.344;2023-06-14T15:32:52;30.50;52.30
34726;DHT22;20951;50.818;4.344;2023-06-14T15:35:19;30.50;52.50
34726;DHT22;20951;50.818;4.344;2023-06-14T15:37:46;30.30;52.70
34726;DHT22;20951;50.818;4.344;2023-06-14T15:40:13;30.20;52.70
34726;DHT22;20951;50.818;4.344;2023-06-14T15:42:39;30.10;53.20
34726;DHT22;20951;50.818;4.344;2023-06-14T15:45:07;30.00;52.60
34726;DHT22;20951;50.818;4.344;2023-06-14T15:47:34;29.90;53.10
34726;DHT22;20951;50.818;4.344;2023-06-14T15:50:04;29.90;53.20
34726;DHT22;20951;50.818;4.344;2023-06-14T15:52:35;29.70;54.20
34726;DHT22;20951;50.818;4.344;2023-06-14T15:55:07;29.50;53.60
34726;DHT22;20951;50.818;4.344;2023-06-14T15:57:40;29.60;54.10
34726;DHT22;20951;50.818;4.344;2023-06-14T16:00:12;29.70;54.00
34726;DHT22;20951;50.818;4.344;2023-06-14T16:02:47;29.60;53.40
34726;DHT22;20951;50.818;4.344;2023-06-14T16:05:17;29.50;53.80
34726;DHT22;20951;50.818;4.344;2023-06-14T16:07:49;29.60;53.80
34726;DHT22;20951;50.818;4.344;2023-06-14T16:10:20;29.60;53.80
34726;DHT22;20951;50.818;4.344;2023-06-14T16:12:51;29.70;53.70
34726;DHT22;20951;50.818;4.344;2023-06-14T16:15:22;29.50;53.60
34726;DHT22;20951;50.818;4.344;2023-06-14T16:17:51;29.50;53.80
34726;DHT22;20951;50.818;4.344;2023-06-14T16:20:20;29.40;54.00
34726;DHT22;20951;50.818;4.344;2023-06-14T16:22:49;29.40;54.10
34726;DHT22;20951;50.818;4.344;2023-06-14T16:25:15;29.30;54.00
34726;DHT22;20951;50.818;4.344;2023-06-14T16:27:42;29.20;53.70
34726;DHT22;20951;50.818;4.344;2023-06-14T16:30:08;29.20;53.40
34726;DHT22;20951;50.818;4.344;2023-06-14T16:32:35;29.20;53.80
34726;DHT22;20951;50.818;4.344;2023-06-14T16:35:01;29.10;54.30
34726;DHT22;20951;50.818;4.344;2023-06-14T16:37:28;29.00;54.20
34726;DHT22;20951;50.818;4.344;2023-06-14T16:39:56;29.00;54.90
34726;DHT22;20951;50.818;4.344;2023-06-14T16:42:22;28.90;54.70
34726;DHT22;20951;50.818;4.344;2023-06-14T16:44:48;28.80;54.90
34726;DHT22;20951;50.818;4.344;2023-06-14T16:47:15;28.80;55.20